createdAt,value
2019-05-17T00:01:48.565Z,22.52
2019-05-17T00:04:27.000Z,22.75
2019-05-17T00:07:06.601Z,25.02
2019-05-17T00:09:44.075Z,24.05
2019-05-17T00:12:21.464Z,25.37
2019-05-17T00:15:00.414Z,26.70
2019-05-17T00:17:38.240Z,26.82
2019-05-17T00:20:31.796Z,27.52
2019-05-17T00:23:09.400Z,27.60
2019-05-17T00:25:47.002Z,26.85
2019-05-17T00:28:26.900Z,28.27
2019-05-17T00:31:06.639Z,30.05
2019-05-17T00:33:43.790Z,28.65
2019-05-17T00:36:21.194Z,27.55
2019-05-17T00:38:58.462Z,27.95
2019-05-17T00:41:37.524Z,24.63
2019-05-17T00:44:16.813Z,21.60
2019-05-17T00:46:58.645Z,21.23
2019-05-17T00:49:34.314Z,21.25
2019-05-17T00:52:11.892Z,24.37
2019-05-17T00:54:49.134Z,26.48
2019-05-17T00:57:27.356Z,29.18
2019-05-17T01:00:08.576Z,28.42
2019-05-17T01:02:46.890Z,28.90
2019-05-17T01:05:24.318Z,30.62
2019-05-17T01:08:02.139Z,31.80
2019-05-17T01:10:39.701Z,32.98
2019-05-17T01:13:17.503Z,32.73
2019-05-17T01:15:56.620Z,34.33
2019-05-17T01:18:47.046Z,35.28
2019-05-17T01:21:26.188Z,37.50
2019-05-17T01:24:17.076Z,36.70
2019-05-17T01:26:53.691Z,36.93
2019-05-17T01:29:30.977Z,36.55
2019-05-17T01:32:08.325Z,38.20
2019-05-17T01:34:49.483Z,38.85
2019-05-17T01:37:27.693Z,37.75
2019-05-17T01:40:06.756Z,40.43
2019-05-17T01:42:46.574Z,38.45
2019-05-17T01:45:24.274Z,43.28
2019-05-17T01:48:01.672Z,37.90
2019-05-17T01:50:39.055Z,40.35
2019-05-17T01:53:16.706Z,37.98
2019-05-17T01:55:56.664Z,38.58
2019-05-17T01:58:33.437Z,37.80
2019-05-17T02:01:22.658Z,38.33
2019-05-17T02:03:59.953Z,41.23
2019-05-17T02:06:48.710Z,38.13
2019-05-17T02:09:41.597Z,38.50
2019-05-17T02:12:17.361Z,36.95
2019-05-17T02:14:57.377Z,37.75
2019-05-17T02:17:34.305Z,38.33
2019-05-17T02:20:11.996Z,37.40
2019-05-17T02:22:49.648Z,36.40
2019-05-17T02:25:28.494Z,36.60
2019-05-17T02:28:05.907Z,38.00
2019-05-17T02:30:55.388Z,39.18
2019-05-17T02:33:34.349Z,39.33
2019-05-17T02:36:14.116Z,39.75
2019-05-17T02:38:53.173Z,39.23
2019-05-17T02:41:33.075Z,38.98
2019-05-17T02:44:12.750Z,38.92
2019-05-17T02:46:49.465Z,41.08
2019-05-17T02:49:26.966Z,40.33
2019-05-17T02:52:04.416Z,41.73
2019-05-17T02:54:43.727Z,41.68
2019-05-17T02:57:34.701Z,42.60
2019-05-17T03:02:53.659Z,41.92
2019-05-17T03:05:33.410Z,46.23
2019-05-17T03:08:08.703Z,42.93
2019-05-17T03:10:46.495Z,41.98
2019-05-17T03:13:24.362Z,41.98
2019-05-17T03:16:03.430Z,44.35
2019-05-17T03:18:43.765Z,48.17
2019-05-17T03:21:22.908Z,44.45
2019-05-17T03:24:02.907Z,44.25
2019-05-17T03:26:42.708Z,43.05
2019-05-17T03:29:19.085Z,45.78
2019-05-17T03:32:00.602Z,46.42
2019-05-17T03:34:44.932Z,47.40
2019-05-17T03:37:25.847Z,45.65
2019-05-17T03:40:04.615Z,44.00
2019-05-17T03:42:39.283Z,45.90
2019-05-17T03:45:16.887Z,43.33
2019-05-17T03:47:55.115Z,43.33
2019-05-17T03:50:33.710Z,41.70
2019-05-17T03:53:13.164Z,41.98
2019-05-17T03:55:53.765Z,39.65
2019-05-17T03:58:33.005Z,39.60
2019-05-17T04:01:08.820Z,40.15
2019-05-17T04:03:48.097Z,39.83
2019-05-17T04:06:27.360Z,38.02
2019-05-17T04:09:06.865Z,37.08
2019-05-17T04:11:55.569Z,37.15
2019-05-17T04:14:33.557Z,37.93
2019-05-17T04:17:13.152Z,38.90
2019-05-17T04:19:53.170Z,38.80
2019-05-17T04:22:29.401Z,39.00
2019-05-17T04:25:13.092Z,40.25
2019-05-17T04:27:48.887Z,38.92
2019-05-17T04:30:26.377Z,39.08
2019-05-17T04:33:04.308Z,37.90
2019-05-17T04:35:43.191Z,37.70
2019-05-17T04:38:23.631Z,37.80
2019-05-17T04:41:03.250Z,35.85
2019-05-17T04:43:42.261Z,39.13
2019-05-17T04:46:18.582Z,38.67
2019-05-17T04:48:56.461Z,38.67
2019-05-17T04:51:34.477Z,39.80
2019-05-17T04:54:13.653Z,38.23
2019-05-17T04:56:53.218Z,41.50
2019-05-17T04:59:33.715Z,43.08
2019-05-17T05:02:12.933Z,42.08
2019-05-17T05:04:48.985Z,41.18
2019-05-17T05:07:26.845Z,41.50
2019-05-17T05:10:04.553Z,39.10
2019-05-17T05:12:44.438Z,38.20
2019-05-17T05:15:43.363Z,40.10
2019-05-17T05:18:22.147Z,40.98
2019-05-17T05:20:59.638Z,43.08
2019-05-17T05:23:37.055Z,38.92
2019-05-17T05:26:14.263Z,35.03
2019-05-17T05:28:52.913Z,35.98
2019-05-17T05:31:32.131Z,34.03
2019-05-17T05:34:12.173Z,32.78
2019-05-17T05:36:49.174Z,28.95
2019-05-17T05:39:26.490Z,30.77
2019-05-17T05:42:07.904Z,32.30
2019-05-17T05:44:43.017Z,31.42
2019-05-17T05:47:22.066Z,32.40
2019-05-17T05:50:01.654Z,32.83
2019-05-17T05:52:42.173Z,32.60
2019-05-17T05:55:23.160Z,32.60
2019-05-17T05:57:59.656Z,32.88
2019-05-17T06:00:37.066Z,33.65
2019-05-17T06:03:15.964Z,33.90
2019-05-17T06:05:53.418Z,34.38
2019-05-17T06:08:32.292Z,35.38
2019-05-17T06:11:12.296Z,34.00
2019-05-17T06:13:52.394Z,34.98
2019-05-17T06:16:31.961Z,36.17
2019-05-17T06:19:08.800Z,36.65
2019-05-17T06:21:46.113Z,36.63
2019-05-17T06:24:24.171Z,37.13
2019-05-17T06:27:02.030Z,37.48
2019-05-17T06:29:41.481Z,37.85
2019-05-17T06:32:18.365Z,37.08
2019-05-17T06:34:55.718Z,39.03
2019-05-17T06:37:32.915Z,39.58
2019-05-17T06:40:12.695Z,37.58
2019-05-17T06:42:49.498Z,37.63
2019-05-17T06:45:27.021Z,38.28
2019-05-17T06:48:05.425Z,37.05
2019-05-17T06:50:43.314Z,36.23
2019-05-17T06:53:21.935Z,35.25
2019-05-17T06:56:02.659Z,35.23
2019-05-17T06:58:39.577Z,35.05
2019-05-17T07:01:16.926Z,36.00
2019-05-17T07:03:54.533Z,36.53
2019-05-17T07:06:33.590Z,35.13
2019-05-17T07:09:11.201Z,35.28
2019-05-17T07:11:48.439Z,34.08
2019-05-17T07:14:26.237Z,31.33
2019-05-17T07:17:03.545Z,30.62
2019-05-17T07:19:40.749Z,28.87
2019-05-17T07:22:21.011Z,30.82
2019-05-17T07:24:59.774Z,28.45
2019-05-17T07:27:41.724Z,26.05
2019-05-17T07:30:19.531Z,25.72
2019-05-17T07:35:33.260Z,26.68
2019-05-17T07:38:10.923Z,27.42
2019-05-17T07:40:50.200Z,25.92
2019-05-17T07:43:29.892Z,27.05
2019-05-17T07:46:09.615Z,27.25
2019-05-17T07:48:49.620Z,28.25
2019-05-17T07:51:26.900Z,27.80
2019-05-17T07:54:04.167Z,27.62
2019-05-17T07:56:41.542Z,29.07
2019-05-17T07:59:19.985Z,29.42
2019-05-17T08:02:10.630Z,30.32
2019-05-17T08:04:50.045Z,30.95
2019-05-17T08:07:26.907Z,31.75
2019-05-17T08:10:05.272Z,35.40
2019-05-17T08:12:42.529Z,36.15
2019-05-17T08:15:20.089Z,35.50
2019-05-17T08:17:59.357Z,33.90
2019-05-17T08:20:36.420Z,31.48
2019-05-17T08:23:13.611Z,29.18
2019-05-17T08:25:55.676Z,27.32
2019-05-17T08:28:31.336Z,27.77
2019-05-17T08:31:09.884Z,29.72
2019-05-17T08:33:49.669Z,27.80
2019-05-17T08:36:26.330Z,29.40
2019-05-17T08:39:04.055Z,28.40
2019-05-17T08:41:41.904Z,29.90
2019-05-17T08:44:19.310Z,28.40
2019-05-17T08:46:56.769Z,27.37
2019-05-17T08:49:34.525Z,27.05
2019-05-17T08:52:12.357Z,27.27
2019-05-17T08:54:49.781Z,25.05
2019-05-17T08:57:30.055Z,24.98
2019-05-17T09:00:10.149Z,24.15
2019-05-17T09:02:46.517Z,23.57
2019-05-17T09:05:25.901Z,22.77
2019-05-17T09:08:03.240Z,23.55
2019-05-17T09:10:41.211Z,24.55
2019-05-17T09:13:19.546Z,23.80
2019-05-17T09:16:00.028Z,23.32
2019-05-17T09:18:39.283Z,23.22
2019-05-17T09:21:15.988Z,23.20
2019-05-17T09:23:54.366Z,22.62
2019-05-17T09:26:32.137Z,23.32
2019-05-17T09:29:10.801Z,23.27
2019-05-17T09:31:50.456Z,22.37
2019-05-17T09:34:29.959Z,22.45
2019-05-17T09:37:09.707Z,23.77
2019-05-17T09:39:46.280Z,23.12
2019-05-17T09:42:25.321Z,27.10
2019-05-17T09:45:02.628Z,25.40
2019-05-17T09:47:40.070Z,27.25
2019-05-17T09:50:17.222Z,26.77
2019-05-17T09:52:54.718Z,25.97
2019-05-17T09:55:32.314Z,26.82
2019-05-17T09:58:10.162Z,25.97
2019-05-17T10:00:49.533Z,26.77
2019-05-17T10:03:27.043Z,26.70
2019-05-17T10:06:04.753Z,26.15
2019-05-17T10:08:44.597Z,26.33
2019-05-17T10:11:21.705Z,22.52
2019-05-17T10:14:01.328Z,20.12
2019-05-17T10:16:38.173Z,19.80
2019-05-17T10:19:15.665Z,19.42
2019-05-17T10:21:52.751Z,19.42
2019-05-17T10:24:38.092Z,18.60
2019-05-17T10:27:22.104Z,19.15
2019-05-17T10:29:59.474Z,18.42
2019-05-17T10:32:40.461Z,18.65
2019-05-17T10:35:16.378Z,20.12
2019-05-17T10:37:53.657Z,19.92
2019-05-17T10:40:31.182Z,19.52
2019-05-17T10:43:10.100Z,19.00
2019-05-17T10:45:47.832Z,18.65
2019-05-17T10:48:25.548Z,19.82
2019-05-17T10:51:03.077Z,19.48
2019-05-17T10:53:42.298Z,18.17
2019-05-17T10:56:22.969Z,17.95
2019-05-17T10:59:00.132Z,17.15
2019-05-17T11:01:38.036Z,17.50
2019-05-17T11:04:15.903Z,17.70
2019-05-17T11:06:53.242Z,17.15
2019-05-17T11:09:31.269Z,17.42
2019-05-17T11:12:08.906Z,17.55
2019-05-17T11:14:55.809Z,17.25
2019-05-17T11:17:25.460Z,18.37
2019-05-17T11:20:03.527Z,16.97
2019-05-17T11:22:40.968Z,15.83
2019-05-17T11:25:19.537Z,14.80
2019-05-17T11:28:09.141Z,14.85
2019-05-17T11:30:46.614Z,13.78
2019-05-17T11:33:23.841Z,15.32
2019-05-17T11:36:01.648Z,17.52
2019-05-17T11:38:39.542Z,16.60
2019-05-17T11:41:21.436Z,16.52
2019-05-17T11:43:57.150Z,17.73
2019-05-17T11:46:36.439Z,16.00
2019-05-17T11:49:14.694Z,14.90
2019-05-17T11:51:51.979Z,14.00
2019-05-17T11:54:29.289Z,14.05
2019-05-17T11:57:08.558Z,13.45
2019-05-17T11:59:45.825Z,14.43
2019-05-17T12:02:35.399Z,13.25
2019-05-17T12:05:13.363Z,13.83
2019-05-17T12:07:50.840Z,12.20
2019-05-17T12:10:28.352Z,11.05
2019-05-17T12:13:06.029Z,12.82
2019-05-17T12:15:45.323Z,13.13
2019-05-17T12:18:22.406Z,14.78
2019-05-17T12:20:59.905Z,13.40
2019-05-17T12:23:37.801Z,13.75
2019-05-17T12:26:15.450Z,12.30
2019-05-17T12:28:52.770Z,12.78
2019-05-17T12:31:30.923Z,10.90
2019-05-17T12:34:20.415Z,12.58
2019-05-17T12:36:57.779Z,11.15
2019-05-17T12:39:35.292Z,11.83
2019-05-17T12:42:12.748Z,10.95
2019-05-17T12:44:50.510Z,10.70
2019-05-17T12:47:28.094Z,9.65
2019-05-17T12:50:05.877Z,9.40
2019-05-17T12:52:43.701Z,10.55
2019-05-17T12:55:21.112Z,10.68
2019-05-17T12:57:58.428Z,10.23
2019-05-17T13:00:35.779Z,10.15
2019-05-17T13:03:13.538Z,9.55
2019-05-17T13:05:50.888Z,9.35
2019-05-17T13:08:28.133Z,9.60
2019-05-17T13:11:05.526Z,8.80
2019-05-17T13:13:43.249Z,10.03
2019-05-17T13:16:20.631Z,9.83
2019-05-17T13:18:59.316Z,9.83
2019-05-17T13:21:37.451Z,9.48
2019-05-17T13:24:15.071Z,10.32
2019-05-17T13:26:52.520Z,9.03
2019-05-17T13:29:29.843Z,8.28
2019-05-17T13:32:07.255Z,9.35
2019-05-17T13:34:44.535Z,8.78
2019-05-17T13:37:22.039Z,8.10
2019-05-17T13:39:59.781Z,8.55
2019-05-17T13:42:37.116Z,8.23
2019-05-17T13:45:16.192Z,8.65
2019-05-17T13:47:53.473Z,11.10
2019-05-17T13:50:32.368Z,10.40
2019-05-17T13:53:10.010Z,10.32
2019-05-17T13:55:47.313Z,10.03
2019-05-17T13:58:27.225Z,11.10
2019-05-17T14:01:16.098Z,10.08
2019-05-17T14:03:53.955Z,12.33
2019-05-17T14:06:31.294Z,12.37
2019-05-17T14:09:08.528Z,12.25
2019-05-17T14:11:47.741Z,13.65
2019-05-17T14:14:24.907Z,13.38
2019-05-17T14:17:02.582Z,12.78
2019-05-17T14:19:40.160Z,12.80
2019-05-17T14:22:17.441Z,11.78
2019-05-17T14:24:54.630Z,11.28
2019-05-17T14:27:31.988Z,11.75
2019-05-17T14:30:10.932Z,11.60
2019-05-17T14:32:48.291Z,11.88
2019-05-17T14:35:25.463Z,12.73
2019-05-17T14:38:03.111Z,12.53
2019-05-17T14:41:04.886Z,12.95
2019-05-17T14:43:19.949Z,12.20
2019-05-17T14:45:57.583Z,13.60
2019-05-17T14:48:35.432Z,12.88
2019-05-17T14:51:12.876Z,5.40
2019-05-17T14:53:50.542Z,4.03
2019-05-17T14:56:29.129Z,6.30
2019-05-17T14:59:06.557Z,4.30
2019-05-17T15:01:43.884Z,4.53
2019-05-17T15:04:21.460Z,5.00
2019-05-17T15:07:00.045Z,5.90
2019-05-17T15:09:37.684Z,6.47
2019-05-17T15:12:27.859Z,8.23
2019-05-17T15:14:54.670Z,9.80
2019-05-17T15:17:35.157Z,8.85
2019-05-17T15:20:13.877Z,11.12
2019-05-17T15:22:51.314Z,8.95
2019-05-17T15:25:29.232Z,16.25
2019-05-17T15:28:07.587Z,11.12
2019-05-17T15:30:45.214Z,9.30
2019-05-17T15:33:22.639Z,8.18
2019-05-17T15:36:00.271Z,8.63
2019-05-17T15:38:38.135Z,9.50
2019-05-17T15:41:15.560Z,10.28
2019-05-17T15:43:53.247Z,10.10
2019-05-17T15:46:32.132Z,9.85
2019-05-17T15:49:10.761Z,11.48
2019-05-17T15:51:48.437Z,10.95
2019-05-17T15:54:25.884Z,12.85
2019-05-17T15:57:03.420Z,13.68
2019-05-17T15:59:40.807Z,14.18
2019-05-17T16:02:18.073Z,14.10
2019-05-17T16:04:55.516Z,13.40
2019-05-17T16:07:33.122Z,19.80
2019-05-17T16:10:12.769Z,15.35
2019-05-17T16:13:01.750Z,14.58
2019-05-17T16:15:29.464Z,15.28
2019-05-17T16:18:07.167Z,15.45
2019-05-17T16:20:44.510Z,19.50
2019-05-17T16:23:22.094Z,22.02
2019-05-17T16:25:59.692Z,21.15
2019-05-17T16:28:37.191Z,21.75
2019-05-17T16:31:14.995Z,23.00
2019-05-17T16:33:52.924Z,25.45
2019-05-17T16:36:31.938Z,25.92
2019-05-17T16:39:09.989Z,24.47
2019-05-17T16:41:47.214Z,22.65
2019-05-17T16:44:24.893Z,22.95
2019-05-17T16:47:02.389Z,20.65
2019-05-17T16:49:40.678Z,20.00
2019-05-17T16:52:18.414Z,20.97
2019-05-17T16:54:57.014Z,21.68
2019-05-17T16:57:38.327Z,22.13
2019-05-17T17:00:45.136Z,23.07
2019-05-17T17:03:22.585Z,23.20
2019-05-17T17:05:59.950Z,22.52
2019-05-17T17:08:37.873Z,24.67
2019-05-17T17:11:15.516Z,24.87
2019-05-17T17:13:52.971Z,24.15
2019-05-17T17:16:31.173Z,22.82
2019-05-17T17:19:09.078Z,24.00
2019-05-17T17:21:46.444Z,25.62
2019-05-17T17:24:23.913Z,29.45
2019-05-17T17:27:13.801Z,28.50
2019-05-17T17:29:51.099Z,31.30
2019-05-17T17:32:28.693Z,29.12
2019-05-17T17:35:07.090Z,27.67
2019-05-17T17:37:44.888Z,27.90
2019-05-17T17:40:23.878Z,27.95
2019-05-17T17:43:03.819Z,27.62
2019-05-17T17:45:42.160Z,27.30
2019-05-17T17:48:20.102Z,29.52
2019-05-17T17:50:58.194Z,29.95
2019-05-17T17:53:35.808Z,30.55
2019-05-17T17:56:13.839Z,29.18
2019-05-17T17:58:52.841Z,32.48
2019-05-17T18:01:31.510Z,34.80
2019-05-17T18:04:09.355Z,34.05
2019-05-17T18:06:47.125Z,33.00
2019-05-17T18:09:26.084Z,32.55
2019-05-17T18:12:04.311Z,32.45
2019-05-17T18:14:41.625Z,33.55
2019-05-17T18:17:19.819Z,37.08
2019-05-17T18:19:57.966Z,43.20
2019-05-17T18:22:35.418Z,44.20
2019-05-17T18:25:13.117Z,41.35
2019-05-17T18:27:50.902Z,40.43
2019-05-17T18:30:28.450Z,41.28
2019-05-17T18:33:06.467Z,40.55
2019-05-17T18:35:44.477Z,41.68
2019-05-17T18:38:25.618Z,44.55
2019-05-17T18:41:03.804Z,45.90
2019-05-17T18:43:41.623Z,46.42
2019-05-17T18:46:19.146Z,45.88
2019-05-17T18:48:57.343Z,47.75
2019-05-17T18:51:34.902Z,48.48
2019-05-17T18:54:14.585Z,45.35
2019-05-17T18:56:52.510Z,45.78
2019-05-17T18:59:30.373Z,48.25
2019-05-17T19:02:10.193Z,48.25
2019-05-17T19:04:48.065Z,46.48
2019-05-17T19:07:25.985Z,48.58
2019-05-17T19:10:04.259Z,53.35
2019-05-17T19:12:42.384Z,54.35
2019-05-17T19:15:20.317Z,55.63
2019-05-17T19:17:58.192Z,53.83
2019-05-17T19:20:36.131Z,52.17
2019-05-17T19:23:14.605Z,50.73
2019-05-17T19:25:52.451Z,53.17
2019-05-17T19:28:30.213Z,53.10
2019-05-17T19:31:09.271Z,44.40
2019-05-17T19:33:46.659Z,42.43
2019-05-17T19:36:24.109Z,45.40
2019-05-17T19:39:04.910Z,48.10
2019-05-17T19:41:44.835Z,40.38
2019-05-17T19:44:22.514Z,42.53
2019-05-17T19:46:59.960Z,68.25
2019-05-17T19:49:37.451Z,49.45
2019-05-17T19:52:15.013Z,46.92
2019-05-17T19:54:53.077Z,49.40
2019-05-17T19:57:30.965Z,47.15
2019-05-17T20:00:09.443Z,41.75
2019-05-17T20:02:47.530Z,46.70
2019-05-17T20:05:24.843Z,48.05
2019-05-17T20:08:02.754Z,46.13
2019-05-17T20:10:40.200Z,46.58
2019-05-17T20:13:17.612Z,40.17
2019-05-17T20:15:55.207Z,43.85
2019-05-17T20:18:33.044Z,43.98
2019-05-17T20:21:10.638Z,41.50
2019-05-17T20:23:48.208Z,43.90
2019-05-17T20:26:25.941Z,45.92
2019-05-17T20:29:03.809Z,47.48
2019-05-17T20:31:41.635Z,46.58
2019-05-17T20:34:19.513Z,46.25
2019-05-17T20:36:57.115Z,56.02
2019-05-17T20:39:35.378Z,64.70
2019-05-17T20:42:13.356Z,65.45
2019-05-17T20:44:51.023Z,63.45
2019-05-17T20:47:28.637Z,69.82
2019-05-17T20:50:07.571Z,69.42
2019-05-17T20:52:45.685Z,69.82
2019-05-17T20:55:23.154Z,71.60
2019-05-17T20:58:00.763Z,66.25
2019-05-17T21:00:38.595Z,66.62
2019-05-17T21:03:17.647Z,63.60
2019-05-17T21:05:56.579Z,62.08
2019-05-17T21:08:45.793Z,64.42
2019-05-17T21:11:26.685Z,63.17
2019-05-17T21:14:04.545Z,63.70
2019-05-17T21:16:42.117Z,66.17
2019-05-17T21:19:20.124Z,72.03
2019-05-17T21:22:03.112Z,64.55
2019-05-17T21:24:40.882Z,63.60
2019-05-17T21:27:18.349Z,63.40
2019-05-17T21:29:56.268Z,65.85
2019-05-17T21:32:46.037Z,68.57
2019-05-17T21:35:24.025Z,69.77
2019-05-17T21:38:02.622Z,67.05
2019-05-17T21:40:39.952Z,59.85
2019-05-17T21:43:17.580Z,63.15
2019-05-17T21:46:04.086Z,65.83
2019-05-17T21:48:40.521Z,63.87
2019-05-17T21:51:18.641Z,43.33
2019-05-17T21:53:56.845Z,37.05
2019-05-17T21:56:36.404Z,37.75
2019-05-17T21:59:13.702Z,37.25
2019-05-17T22:01:52.366Z,49.95
2019-05-17T22:04:30.267Z,45.23
2019-05-17T22:07:08.347Z,51.28
2019-05-17T22:09:45.758Z,43.92
2019-05-17T22:12:23.044Z,47.90
2019-05-17T22:15:01.060Z,46.80
2019-05-17T22:17:39.362Z,44.18
2019-05-17T22:20:17.118Z,47.53
2019-05-17T22:22:58.074Z,47.80
2019-05-17T22:25:35.624Z,54.67
2019-05-17T22:28:12.942Z,51.23
2019-05-17T22:30:50.815Z,51.05
2019-05-17T22:33:28.787Z,47.90
2019-05-17T22:36:18.820Z,52.15
2019-05-17T22:38:56.519Z,51.23
2019-05-17T22:41:34.461Z,54.80
2019-05-17T22:44:11.964Z,53.38
2019-05-17T22:46:50.147Z,55.15
2019-05-17T22:49:39.885Z,53.20
2019-05-17T22:52:17.167Z,53.05
2019-05-17T22:54:54.793Z,54.42
2019-05-17T22:57:32.689Z,53.65
2019-05-17T23:00:10.885Z,51.65
2019-05-17T23:02:54.732Z,54.58
2019-05-17T23:05:44.357Z,54.00
2019-05-17T23:08:21.677Z,55.10
2019-05-17T23:10:59.523Z,54.13
2019-05-17T23:13:37.228Z,54.77
2019-05-17T23:16:17.798Z,55.78
2019-05-17T23:19:08.721Z,54.40
2019-05-17T23:21:47.815Z,55.73
2019-05-17T23:24:26.473Z,58.08
2019-05-17T23:27:04.200Z,61.77
2019-05-17T23:29:42.083Z,61.18
2019-05-17T23:32:19.876Z,66.50
2019-05-17T23:35:02.844Z,71.80
2019-05-17T23:37:40.851Z,68.50
2019-05-17T23:40:18.740Z,67.78
2019-05-17T23:42:57.613Z,62.75
2019-05-17T23:45:35.568Z,65.52
2019-05-17T23:48:13.265Z,71.70
2019-05-17T23:50:51.170Z,71.72
2019-05-17T23:53:29.234Z,69.95
2019-05-17T23:56:06.709Z,70.12
2019-05-17T23:58:44.418Z,62.98
